Mc Cool, Mississippi
Current Conditions -  °F | °C
As of 5:15 AM on Sunday 23 Nov 2014 (Local Time) from KSTF Reporting Station
Overcast Overcast  
Wind Chill: 55°   Ceiling: 400
Heat Index: 55°   Visibility: NA
Dew Point: 54°   Wind: 9mph
Humidity: 94%   Direction: 120°ESE
Pressure: 29.81"   Gusts: NA
Location:  33.1664°N, 89.3301°W
Report Text: KSTF 231115Z AUTO 12008KT OVC004 13/12 A2981 RMK AO2 PWINO
Loading
Personal Weather Stations






























Interactive Weather Map New forecast layout! Learn more

10-Day Weather Forecast

Advertisements
Track Severe Weather on mobile